Time;durP1;ratioP1;P1;durP2;ratioP2;P2;SDS_P1;SDS_P2;PMS_P1;PMS_P2;Temp;Humidity;BMP_temperature;BMP_pressure;BME280_temperature;BME280_humidity;BME280_pressure;Samples;Min_cycle;Max_cycle;Signal;HPM_P1;HPM_P2
2021/06/08 00:01:21;;;;;;;19.77;14.73;;;20.30;79.00;;;;;;5106478;28;20194;-75
2021/06/08 00:03:49;;;;;;;21.10;14.75;;;20.30;79.30;;;;;;5102326;28;20194;-75
2021/06/08 00:06:15;;;;;;;21.10;15.13;;;20.20;79.70;;;;;;5103016;28;20201;-75
2021/06/08 00:08:42;;;;;;;21.33;15.32;;;20.20;80.10;;;;;;5107953;28;20209;-77
2021/06/08 00:11:08;;;;;;;20.05;15.25;;;20.20;80.60;;;;;;5104320;28;20213;-75
2021/06/08 00:13:35;;;;;;;20.05;14.73;;;20.10;81.00;;;;;;5108184;28;20213;-75
2021/06/08 00:16:02;;;;;;;21.88;15.88;;;20.10;81.30;;;;;;5105098;28;20216;-73
2021/06/08 00:18:28;;;;;;;21.42;15.25;;;20.10;81.70;;;;;;5107142;28;20197;-73
2021/06/08 00:20:56;;;;;;;22.08;15.75;;;20.10;82.10;;;;;;5101978;28;20205;-76
2021/06/08 00:23:22;;;;;;;21.30;16.20;;;20.10;82.50;;;;;;5104952;28;20213;-75
2021/06/08 00:25:52;;;;;;;22.40;16.15;;;20.00;82.80;;;;;;5106377;28;20194;-75
2021/06/08 00:28:18;;;;;;;25.05;16.67;;;20.00;83.10;;;;;;5107001;28;20205;-73
2021/06/08 00:30:45;;;;;;;20.23;15.85;;;20.00;83.50;;;;;;5106564;28;20233;-76
2021/06/08 00:33:11;;;;;;;23.05;17.08;;;20.00;83.80;;;;;;5104972;28;20607;-74
2021/06/08 00:35:37;;;;;;;21.50;16.45;;;19.90;84.10;;;;;;5105466;28;20217;-75
2021/06/08 00:38:05;;;;;;;22.30;16.25;;;19.90;84.40;;;;;;5104595;28;20250;-75
2021/06/08 00:40:31;;;;;;;23.10;16.15;;;19.90;84.80;;;;;;5106204;28;20297;-73
2021/06/08 00:42:58;;;;;;;25.25;17.13;;;19.90;85.10;;;;;;5105020;28;20201;-74
2021/06/08 00:45:24;;;;;;;23.67;17.15;;;19.90;85.40;;;;;;5104527;28;20540;-74
2021/06/08 00:47:51;;;;;;;23.42;17.52;;;19.80;85.70;;;;;;5106194;28;20209;-74
2021/06/08 00:50:18;;;;;;;26.70;18.08;;;19.80;85.90;;;;;;5105886;28;20189;-74
2021/06/08 00:52:45;;;;;;;24.45;17.35;;;19.80;86.80;;;;;;5105615;28;20654;-73
2021/06/08 00:55:13;;;;;;;25.45;17.10;;;19.70;86.20;;;;;;5106911;28;20380;-74
2021/06/08 00:57:40;;;;;;;24.65;17.92;;;19.70;86.60;;;;;;5104723;28;20239;-73
2021/06/08 01:00:08;;;;;;;22.95;17.13;;;19.70;86.80;;;;;;5106233;28;20254;-74
2021/06/08 01:02:35;;;;;;;24.13;17.23;;;19.60;87.00;;;;;;5101486;28;20201;-75
2021/06/08 01:05:03;;;;;;;25.42;17.80;;;19.60;87.10;;;;;;5104955;28;20200;-75
2021/06/08 01:07:32;;;;;;;23.95;18.02;;;19.70;87.30;;;;;;5101561;28;20220;-73
2021/06/08 01:09:58;;;;;;;23.15;17.67;;;19.60;87.30;;;;;;5104391;28;20279;-74
2021/06/08 01:12:26;;;;;;;25.10;18.70;;;19.60;87.50;;;;;;5101125;28;20205;-73
2021/06/08 01:14:53;;;;;;;23.88;17.70;;;19.60;87.70;;;;;;5104931;28;20201;-74
2021/06/08 01:17:19;;;;;;;24.98;18.77;;;19.60;87.90;;;;;;5101575;28;20227;-75
2021/06/08 01:19:47;;;;;;;25.27;18.90;;;19.60;88.00;;;;;;5099185;28;20201;-75
2021/06/08 01:22:15;;;;;;;31.20;19.15;;;19.50;88.10;;;;;;5101646;28;20279;-74
2021/06/08 01:24:43;;;;;;;27.05;19.40;;;19.60;88.40;;;;;;5099208;28;20201;-75
2021/06/08 01:27:10;;;;;;;26.10;18.75;;;19.60;88.50;;;;;;5100372;28;20197;-74
2021/06/08 01:29:38;;;;;;;26.67;19.17;;;19.50;88.70;;;;;;5101145;28;20224;-74
2021/06/08 01:32:22;;;;;;;31.65;19.15;;;19.50;88.90;;;;;;5068221;28;20208;-74
2021/06/08 01:34:49;;;;;;;25.77;19.25;;;19.40;88.90;;;;;;5102787;28;22280;-76
2021/06/08 01:37:17;;;;;;;27.10;19.65;;;19.40;89.20;;;;;;5100727;28;20274;-75
2021/06/08 01:39:46;;;;;;;25.25;18.88;;;19.40;89.40;;;;;;5097734;28;20216;-75
2021/06/08 01:42:14;;;;;;;33.30;20.00;;;19.30;89.40;;;;;;5103451;28;20209;-75
2021/06/08 01:44:42;;;;;;;28.17;20.38;;;19.30;89.70;;;;;;5104865;28;20208;-74
2021/06/08 01:47:09;;;;;;;30.15;20.92;;;19.30;89.90;;;;;;5106814;28;20608;-74
2021/06/08 01:49:35;;;;;;;27.58;19.58;;;19.30;90.00;;;;;;5103804;28;20208;-74
2021/06/08 01:52:13;;;;;;;25.77;19.45;;;19.30;90.10;;;;;;5106001;28;20778;-74
2021/06/08 01:54:48;;;;;;;27.30;19.10;;;19.30;90.20;;;;;;5103004;28;20652;-73
2021/06/08 01:57:18;;;;;;;30.30;20.88;;;19.30;90.20;;;;;;5104684;28;20262;-72
2021/06/08 01:59:53;;;;;;;28.20;19.13;;;19.30;90.30;;;;;;5102328;28;20197;-75
2021/06/08 02:02:26;;;;;;;25.75;19.52;;;19.30;90.30;;;;;;5102663;28;20201;-74
2021/06/08 02:05:07;;;;;;;24.02;18.40;;;19.20;90.30;;;;;;5103339;28;20209;-72
2021/06/08 02:07:44;;;;;;;24.00;18.77;;;19.20;90.30;;;;;;5104903;28;20732;-74
2021/06/08 02:10:36;;;;;;;26.65;19.15;;;19.20;90.30;;;;;;5102451;28;20209;-74
2021/06/08 02:13:13;;;;;;;25.40;18.13;;;19.20;90.30;;;;;;5103013;28;20284;-74
2021/06/08 02:15:46;;;;;;;26.10;18.02;;;19.10;90.30;;;;;;5108009;28;20236;-74
2021/06/08 02:18:16;;;;;;;24.33;18.17;;;19.10;90.40;;;;;;5106443;28;20216;-74
2021/06/08 02:20:43;;;;;;;26.33;19.17;;;19.10;90.40;;;;;;5110883;27;20189;-74
2021/06/08 02:23:12;;;;;;;25.95;19.27;;;19.10;90.50;;;;;;5108314;28;20200;-74
2021/06/08 02:25:40;;;;;;;25.58;17.75;;;19.10;90.50;;;;;;5110290;28;20197;-74
2021/06/08 02:28:12;;;;;;;25.83;17.63;;;19.10;90.50;;;;;;5108766;28;20197;-75
2021/06/08 02:30:40;;;;;;;25.85;17.50;;;19.00;90.50;;;;;;5107928;28;21973;-74
2021/06/08 02:33:08;;;;;;;25.30;17.63;;;19.00;90.50;;;;;;5108574;28;20220;-74
2021/06/08 02:35:36;;;;;;;27.50;19.13;;;19.00;90.50;;;;;;5105304;28;20424;-73
2021/06/08 02:38:03;;;;;;;25.90;18.67;;;19.40;90.50;;;;;;5107574;28;20785;-75
2021/06/08 02:40:31;;;;;;;23.92;18.33;;;19.70;89.60;;;;;;5108687;28;20472;-73
2021/06/08 02:43:00;;;;;;;22.27;18.05;;;19.90;88.40;;;;;;5107823;28;20437;-72
2021/06/08 02:45:27;;;;;;;23.50;18.35;;;20.00;87.80;;;;;;5108775;28;20918;-75
2021/06/08 02:47:55;;;;;;;22.80;16.83;;;20.10;87.10;;;;;;5109909;28;20216;-74
2021/06/08 02:50:24;;;;;;;20.70;16.25;;;19.70;88.00;;;;;;5106335;28;20208;-74
2021/06/08 02:52:54;;;;;;;26.52;17.10;;;19.50;88.80;;;;;;5109296;28;20205;-74
2021/06/08 02:55:22;;;;;;;25.00;15.98;;;19.30;89.30;;;;;;5105593;28;20208;-74
2021/06/08 02:57:51;;;;;;;20.02;15.80;;;19.20;89.70;;;;;;5108018;28;20582;-74
2021/06/08 03:00:21;;;;;;;22.73;15.48;;;19.10;89.90;;;;;;5105366;28;20197;-74
2021/06/08 03:02:49;;;;;;;21.98;15.65;;;19.00;90.00;;;;;;5108893;28;20213;-72
2021/06/08 03:05:21;;;;;;;21.27;17.02;;;18.90;90.00;;;;;;5106069;28;20423;-73
2021/06/08 03:07:51;;;;;;;20.08;16.30;;;19.40;90.00;;;;;;5105026;28;20826;-72
2021/06/08 03:10:20;;;;;;;22.23;16.88;;;19.60;88.70;;;;;;5106199;28;20905;-74
2021/06/08 03:12:49;;;;;;;22.25;17.05;;;19.80;88.00;;;;;;5106068;28;20503;-74
2021/06/08 03:15:18;;;;;;;21.98;16.73;;;19.90;87.80;;;;;;5103978;28;20450;-74
2021/06/08 03:17:46;;;;;;;21.45;16.17;;;19.90;87.30;;;;;;5106911;28;20440;-73
2021/06/08 03:20:17;;;;;;;20.85;16.52;;;19.90;86.40;;;;;;5106075;28;20427;-72
2021/06/08 03:22:47;;;;;;;20.95;16.35;;;20.00;86.40;;;;;;5106872;28;20433;-77
2021/06/08 03:25:17;;;;;;;24.05;16.35;;;20.00;86.10;;;;;;5105007;28;20420;-74
2021/06/08 03:27:46;;;;;;;20.35;16.10;;;20.00;85.50;;;;;;5106541;28;20423;-72
2021/06/08 03:30:14;;;;;;;19.60;15.95;;;20.00;85.40;;;;;;5104346;28;20431;-72
2021/06/08 03:32:41;;;;;;;21.77;16.23;;;20.00;85.90;;;;;;5103883;28;20424;-73
2021/06/08 03:35:11;;;;;;;21.23;15.50;;;20.00;86.10;;;;;;5099269;28;20435;-74
2021/06/08 03:37:42;;;;;;;19.42;15.75;;;20.00;86.30;;;;;;5107115;28;20445;-73
2021/06/08 03:40:10;;;;;;;19.90;15.75;;;20.00;86.50;;;;;;5098521;28;20891;-72
2021/06/08 03:42:39;;;;;;;20.60;15.70;;;20.00;86.60;;;;;;5106541;28;20423;-74
2021/06/08 03:45:08;;;;;;;19.23;15.60;;;20.00;86.90;;;;;;5104120;28;20428;-72
2021/06/08 03:47:35;;;;;;;20.48;15.52;;;20.00;87.20;;;;;;5107242;28;20921;-73
2021/06/08 03:50:01;;;;;;;18.95;15.40;;;19.90;87.30;;;;;;5105522;28;20427;-74
2021/06/08 03:52:29;;;;;;;19.50;15.43;;;19.90;87.10;;;;;;5106806;28;20425;-75
2021/06/08 03:54:56;;;;;;;19.58;15.25;;;19.90;86.40;;;;;;5103730;28;20431;-74
2021/06/08 03:57:27;;;;;;;18.92;15.30;;;19.90;86.20;;;;;;5103174;28;20435;-73
2021/06/08 03:59:55;;;;;;;19.63;15.35;;;19.90;86.70;;;;;;5102898;28;20430;-74
2021/06/08 04:02:21;;;;;;;22.23;16.00;;;19.90;85.90;;;;;;5102961;28;20428;-74
2021/06/08 04:04:49;;;;;;;21.58;15.57;;;19.90;85.80;;;;;;5103260;28;20443;-73
2021/06/08 04:07:18;;;;;;;19.33;14.80;;;19.90;86.00;;;;;;5101132;28;20476;-73
2021/06/08 04:09:48;;;;;;;19.50;14.77;;;19.90;86.00;;;;;;5101519;28;20814;-74
2021/06/08 04:12:14;;;;;;;19.85;14.85;;;19.90;86.00;;;;;;5100240;28;20416;-74
2021/06/08 04:14:43;;;;;;;19.90;14.70;;;19.90;85.70;;;;;;5100355;28;20442;-74
2021/06/08 04:17:10;;;;;;;17.85;14.27;;;19.90;85.90;;;;;;5105934;28;20424;-74
2021/06/08 04:19:37;;;;;;;19.77;14.45;;;19.90;85.90;;;;;;5104738;28;20433;-74
2021/06/08 04:22:04;;;;;;;21.13;14.60;;;19.90;85.80;;;;;;5107373;28;20513;-73
2021/06/08 04:24:31;;;;;;;19.50;14.75;;;19.90;85.80;;;;;;5101286;28;20429;-74
2021/06/08 04:27:00;;;;;;;19.88;14.65;;;19.90;85.50;;;;;;5101991;28;20423;-75
2021/06/08 04:29:27;;;;;;;21.63;14.88;;;19.90;85.70;;;;;;5104567;28;20513;-74
2021/06/08 04:31:55;;;;;;;18.33;14.93;;;19.90;85.80;;;;;;5106087;28;20462;-74
2021/06/08 04:34:22;;;;;;;19.17;14.63;;;20.00;86.10;;;;;;5105251;28;20420;-72
2021/06/08 04:36:48;;;;;;;17.30;14.40;;;20.00;86.10;;;;;;5101555;28;20430;-74
2021/06/08 04:39:15;;;;;;;19.92;14.88;;;19.90;86.10;;;;;;5104288;28;20416;-73
2021/06/08 04:41:41;;;;;;;18.63;14.35;;;20.00;86.20;;;;;;5105364;28;20838;-74
2021/06/08 04:44:09;;;;;;;19.45;14.57;;;20.00;86.30;;;;;;5105879;28;20430;-75
2021/06/08 04:46:38;;;;;;;20.10;14.47;;;20.00;86.40;;;;;;5101421;28;20474;-74
2021/06/08 04:49:05;;;;;;;21.83;14.38;;;20.00;86.30;;;;;;5100903;28;20465;-72
2021/06/08 04:51:33;;;;;;;19.15;15.15;;;20.00;86.30;;;;;;5100118;28;20490;-73
2021/06/08 04:53:59;;;;;;;19.60;15.00;;;20.00;86.40;;;;;;5101506;28;20524;-73
2021/06/08 04:56:26;;;;;;;19.13;14.63;;;20.00;86.70;;;;;;5099197;28;20453;-74
2021/06/08 04:58:52;;;;;;;17.47;15.07;;;20.00;86.50;;;;;;5099294;28;20428;-73
2021/06/08 05:01:27;;;;;;;19.20;14.52;;;20.00;85.90;;;;;;5098947;28;20576;-75
2021/06/08 05:03:59;;;;;;;18.13;14.52;;;20.00;86.10;;;;;;5104497;28;20494;-73
2021/06/08 05:06:29;;;;;;;18.00;14.55;;;20.00;86.10;;;;;;5099986;28;20416;-73
2021/06/08 05:09:03;;;;;;;20.98;14.75;;;20.00;85.90;;;;;;5103762;28;20441;-76
2021/06/08 05:11:34;;;;;;;19.98;14.13;;;20.00;86.00;;;;;;5100228;28;21066;-73
2021/06/08 05:14:03;;;;;;;19.77;13.90;;;20.00;86.00;;;;;;5102224;27;20778;-72
2021/06/08 05:16:31;;;;;;;17.00;13.50;;;20.10;85.20;;;;;;5103800;28;20514;-74
2021/06/08 05:18:59;;;;;;;17.07;12.67;;;20.10;84.30;;;;;;5098498;28;20412;-72
2021/06/08 05:21:26;;;;;;;18.03;12.13;;;20.10;83.20;;;;;;5101528;28;20899;-71
2021/06/08 05:23:54;;;;;;;15.45;11.63;;;20.10;82.60;;;;;;5104054;28;20424;-73
2021/06/08 05:26:21;;;;;;;17.10;11.50;;;20.10;82.00;;;;;;5100697;28;20497;-71
2021/06/08 05:28:48;;;;;;;15.67;11.93;;;20.10;81.60;;;;;;5104688;28;20838;-72
2021/06/08 05:31:18;;;;;;;16.02;10.88;;;20.20;81.50;;;;;;5060481;28;20439;-72
2021/06/08 05:33:46;;;;;;;14.48;11.00;;;20.20;81.30;;;;;;5063174;28;20517;-71
2021/06/08 05:36:13;;;;;;;14.20;10.90;;;20.10;81.40;;;;;;5062020;28;20424;-70
2021/06/08 05:38:43;;;;;;;14.20;10.10;;;20.10;80.90;;;;;;5065324;28;20485;-74
2021/06/08 05:41:10;;;;;;;13.27;9.43;;;20.10;80.30;;;;;;5059454;28;20427;-71
2021/06/08 05:43:38;;;;;;;11.45;8.90;;;20.10;80.00;;;;;;5060264;28;20431;-72
2021/06/08 05:46:06;;;;;;;13.40;9.38;;;20.10;79.10;;;;;;5062950;28;20496;-73
2021/06/08 05:48:32;;;;;;;13.70;9.68;;;20.20;78.50;;;;;;5062580;28;20442;-72
2021/06/08 05:51:02;;;;;;;13.82;9.77;;;20.20;78.50;;;;;;5062629;28;20434;-73
2021/06/08 05:53:28;;;;;;;16.25;10.25;;;20.20;79.10;;;;;;5057234;28;20445;-69
2021/06/08 05:55:57;;;;;;;14.32;10.48;;;20.20;79.40;;;;;;5062366;28;20435;-75
2021/06/08 05:58:24;;;;;;;17.23;10.70;;;20.20;80.10;;;;;;5062750;28;20784;-72
2021/06/08 06:00:51;;;;;;;14.43;10.15;;;20.20;80.40;;;;;;5065853;28;20569;-69
2021/06/08 06:03:18;;;;;;;16.50;12.48;;;20.20;80.50;;;;;;5067116;28;20534;-73
2021/06/08 06:05:47;;;;;;;16.25;10.55;;;20.30;80.30;;;;;;5067858;28;20813;-70
2021/06/08 06:08:15;;;;;;;14.40;10.98;;;20.30;80.60;;;;;;5065772;28;20426;-71
2021/06/08 06:10:42;;;;;;;17.38;10.88;;;20.30;81.00;;;;;;5067488;28;20826;-72
2021/06/08 06:13:14;;;;;;;13.98;10.85;;;20.20;81.00;;;;;;5063228;28;20429;-72
2021/06/08 06:15:41;;;;;;;11.07;6.93;;;20.20;81.00;;;;;;5066579;28;20399;-71
2021/06/08 06:18:08;;;;;;;11.43;5.80;;;20.30;79.10;;;;;;5067838;28;20768;-75
2021/06/08 06:20:34;;;;;;;9.13;5.90;;;20.20;76.50;;;;;;5065791;28;20465;-73
2021/06/08 06:23:01;;;;;;;11.27;6.72;;;20.30;77.40;;;;;;5065634;28;20488;-74
2021/06/08 06:25:30;;;;;;;10.00;5.82;;;20.20;76.90;;;;;;5067085;28;20423;-74
2021/06/08 06:27:56;;;;;;;7.78;5.88;;;20.20;76.70;;;;;;5067278;28;20412;-75
2021/06/08 06:30:24;;;;;;;9.38;6.25;;;20.30;76.90;;;;;;5090287;28;20424;-73
2021/06/08 06:32:51;;;;;;;9.90;6.40;;;20.30;77.20;;;;;;5106270;28;20404;-73
2021/06/08 06:35:18;;;;;;;9.05;6.32;;;20.20;77.30;;;;;;5106266;28;20421;-76
2021/06/08 06:37:46;;;;;;;11.48;6.70;;;20.20;77.70;;;;;;5107743;28;20432;-74
2021/06/08 06:40:17;;;;;;;11.32;7.05;;;20.20;78.20;;;;;;5108294;28;20412;-73
2021/06/08 06:42:48;;;;;;;9.80;6.45;;;20.20;78.50;;;;;;5107385;28;20411;-76
2021/06/08 06:45:17;;;;;;;12.25;6.57;;;20.20;78.30;;;;;;5107284;28;20848;-73
2021/06/08 06:47:44;;;;;;;10.63;6.30;;;20.30;77.80;;;;;;5104737;28;20427;-72
2021/06/08 06:50:11;;;;;;;10.48;5.88;;;20.40;78.10;;;;;;5107865;28;20415;-74
2021/06/08 06:52:39;;;;;;;10.32;5.97;;;20.40;77.10;;;;;;5106683;28;20473;-73
2021/06/08 06:55:07;;;;;;;13.90;6.40;;;20.40;77.20;;;;;;5107902;28;20411;-73
2021/06/08 06:57:35;;;;;;;8.27;5.68;;;20.40;76.70;;;;;;5106313;28;20761;-73
2021/06/08 07:00:04;;;;;;;8.60;5.60;;;20.40;75.90;;;;;;5108762;28;20416;-75
2021/06/08 07:02:31;;;;;;;10.35;5.45;;;20.40;75.00;;;;;;5108468;28;20427;-73
2021/06/08 07:04:58;;;;;;;8.20;4.97;;;20.40;75.50;;;;;;5108085;28;20422;-73
2021/06/08 07:07:25;;;;;;;9.98;5.18;;;20.50;75.50;;;;;;5111168;28;20425;-73
2021/06/08 07:09:52;;;;;;;9.85;5.22;;;20.50;74.50;;;;;;5111759;28;20412;-74
2021/06/08 07:12:21;;;;;;;8.45;4.38;;;20.50;74.90;;;;;;5110526;28;20420;-73
2021/06/08 07:14:48;;;;;;;9.83;4.30;;;20.60;75.20;;;;;;5109816;28;21032;-74
2021/06/08 07:17:20;;;;;;;10.45;4.70;;;20.60;73.60;;;;;;5109900;28;20776;-73
2021/06/08 07:19:47;;;;;;;9.10;4.10;;;20.70;74.20;;;;;;5105453;28;20424;-75
2021/06/08 07:22:14;;;;;;;6.80;4.13;;;20.70;74.70;;;;;;5104916;28;20413;-73
2021/06/08 07:24:42;;;;;;;7.40;4.00;;;20.80;73.30;;;;;;5108438;28;20477;-73
2021/06/08 07:27:12;;;;;;;6.35;3.78;;;20.80;74.00;;;;;;5109556;28;20478;-72
2021/06/08 07:29:39;;;;;;;11.02;3.55;;;20.80;73.30;;;;;;5109435;28;20456;-75
2021/06/08 07:32:11;;;;;;;5.90;2.97;;;20.90;71.00;;;;;;5102066;27;20422;-73
2021/06/08 07:34:43;;;;;;;4.28;2.85;;;21.00;70.20;;;;;;5106718;28;20944;-71
2021/06/08 07:38:16;;;;;;;4.82;2.88;;;21.00;69.30;;;;;;5133282;27;20438;-72
2021/06/08 07:40:49;;;;;;;5.57;2.83;;;21.00;69.20;;;;;;5085557;28;20277;-74
2021/06/08 07:43:20;;;;;;;7.45;3.08;;;20.70;70.50;;;;;;5082591;28;20666;-72
2021/06/08 07:45:49;;;;;;;5.88;3.13;;;20.50;71.30;;;;;;5081233;28;20198;-72
2021/06/08 07:48:18;;;;;;;7.55;3.85;;;20.40;71.70;;;;;;5084389;28;20190;-73
2021/06/08 07:50:49;;;;;;;6.55;2.92;;;20.40;72.20;;;;;;5085240;28;20294;-71
2021/06/08 07:53:17;;;;;;;6.07;3.20;;;20.30;72.10;;;;;;5085711;28;20658;-72
2021/06/08 07:55:45;;;;;;;5.97;3.00;;;20.30;71.80;;;;;;5082560;28;20216;-70
2021/06/08 07:58:11;;;;;;;4.82;2.80;;;20.20;71.50;;;;;;5081454;28;20588;-74
2021/06/08 08:00:41;;;;;;;9.05;3.30;;;20.20;71.40;;;;;;5082392;28;20213;-73
2021/06/08 08:03:26;;;;;;;5.97;2.85;;;20.20;71.30;;;;;;5077011;28;20202;-73
2021/06/08 08:05:55;;;;;;;5.70;2.70;;;20.20;71.30;;;;;;5073675;28;20217;-75
2021/06/08 08:08:23;;;;;;;4.55;2.60;;;20.30;71.00;;;;;;5078588;28;20727;-74
2021/06/08 08:10:51;;;;;;;6.80;2.30;;;20.20;70.90;;;;;;5080194;28;20232;-72
2021/06/08 08:13:22;;;;;;;5.35;2.90;;;20.30;70.90;;;;;;5082643;28;20198;-70
2021/06/08 08:15:50;;;;;;;5.78;2.05;;;20.30;70.70;;;;;;5078944;28;20658;-74
2021/06/08 08:18:17;;;;;;;3.75;2.10;;;20.30;69.90;;;;;;5081862;28;20256;-73
2021/06/08 08:20:46;;;;;;;3.63;2.00;;;20.40;69.60;;;;;;5082037;28;20233;-74
2021/06/08 08:23:13;;;;;;;4.72;2.00;;;20.40;69.20;;;;;;5079565;28;20217;-71
2021/06/08 08:25:41;;;;;;;3.28;1.95;;;20.40;69.00;;;;;;5077274;28;20611;-73
2021/06/08 08:28:08;;;;;;;4.20;1.92;;;20.50;68.80;;;;;;5082558;28;20202;-72
2021/06/08 08:30:35;;;;;;;2.50;1.90;;;20.50;68.40;;;;;;5080501;28;20205;-71
2021/06/08 08:33:03;;;;;;;6.93;1.80;;;20.60;68.30;;;;;;5081859;28;20209;-73
2021/06/08 08:35:30;;;;;;;2.92;1.77;;;20.60;67.80;;;;;;5080606;28;20198;-72
2021/06/08 08:37:56;;;;;;;4.70;1.90;;;20.70;67.20;;;;;;5082768;28;20198;-79
2021/06/08 08:40:23;;;;;;;4.28;1.80;;;20.70;67.30;;;;;;5082930;28;20206;-74
2021/06/08 08:42:51;;;;;;;4.80;1.67;;;20.70;66.90;;;;;;5080887;28;20198;-72
2021/06/08 08:45:18;;;;;;;6.20;1.65;;;20.80;66.00;;;;;;5082420;28;20193;-73
2021/06/08 08:47:45;;;;;;;4.22;2.05;;;20.80;65.70;;;;;;5075823;28;20609;-69
2021/06/08 08:50:14;;;;;;;3.40;1.90;;;20.90;65.60;;;;;;5071619;28;20252;-74
2021/06/08 08:52:44;;;;;;;5.00;2.00;;;20.90;65.80;;;;;;5062085;28;20199;-72
2021/06/08 08:55:11;;;;;;;3.22;1.60;;;21.00;65.90;;;;;;5071717;28;20197;-73
2021/06/08 08:57:42;;;;;;;5.00;1.90;;;21.00;65.70;;;;;;5066635;28;20218;-72
2021/06/08 09:00:12;;;;;;;3.33;1.60;;;21.10;65.30;;;;;;5069289;28;20198;-73
2021/06/08 09:02:38;;;;;;;4.68;1.60;;;21.20;64.90;;;;;;5065828;28;20210;-73
2021/06/08 09:05:06;;;;;;;6.25;2.10;;;21.20;64.60;;;;;;5066089;28;20210;-72
2021/06/08 09:07:32;;;;;;;3.40;1.30;;;21.30;64.70;;;;;;5068054;28;20190;-72
2021/06/08 09:09:58;;;;;;;1.65;1.35;;;21.40;64.30;;;;;;5062912;28;20592;-74
2021/06/08 09:12:25;;;;;;;2.80;1.38;;;21.40;64.10;;;;;;5065729;28;20649;-73
2021/06/08 09:14:51;;;;;;;3.90;1.58;;;21.50;63.30;;;;;;5065894;28;20198;-73
2021/06/08 09:17:19;;;;;;;1.73;1.02;;;21.50;63.10;;;;;;5070441;28;20215;-72
2021/06/08 09:19:46;;;;;;;2.20;1.20;;;21.60;62.90;;;;;;5066798;28;20579;-72
2021/06/08 09:22:14;;;;;;;4.55;1.35;;;21.70;63.30;;;;;;5068846;28;20199;-71
2021/06/08 09:24:43;;;;;;;2.58;1.50;;;21.70;62.20;;;;;;5067646;28;20203;-71
2021/06/08 09:27:09;;;;;;;2.22;1.20;;;21.80;61.90;;;;;;5066122;28;20324;-74
2021/06/08 09:29:38;;;;;;;5.28;1.40;;;21.80;61.70;;;;;;5068702;28;20248;-70
2021/06/08 09:32:23;;;;;;;1.85;1.20;;;21.90;61.10;;;;;;5076342;28;20195;-72
2021/06/08 09:34:52;;;;;;;3.05;1.33;;;21.90;60.30;;;;;;5064412;28;20210;-71
2021/06/08 09:37:32;;;;;;;2.45;1.52;;;22.00;60.10;;;;;;5070822;28;20317;-69
2021/06/08 09:39:59;;;;;;;3.95;1.48;;;22.10;60.60;;;;;;5062300;28;20221;-74
2021/06/08 09:42:28;;;;;;;3.33;1.58;;;22.10;61.40;;;;;;5066038;28;20206;-73
2021/06/08 09:45:08;;;;;;;2.00;1.40;;;22.20;60.30;;;;;;5064191;28;20210;-71
2021/06/08 09:47:36;;;;;;;2.65;1.42;;;22.30;59.70;;;;;;5068235;28;20203;-74
2021/06/08 09:50:23;;;;;;;2.05;1.30;;;22.30;59.00;;;;;;5067897;28;20218;-73
2021/06/08 09:52:49;;;;;;;2.53;1.60;;;22.40;58.90;;;;;;5065534;28;20225;-72
2021/06/08 09:55:16;;;;;;;2.40;1.70;;;22.50;58.70;;;;;;5066151;28;20213;-71
2021/06/08 09:57:42;;;;;;;3.97;1.70;;;22.50;58.40;;;;;;5065314;28;20232;-72
2021/06/08 10:00:09;;;;;;;3.70;1.40;;;22.60;58.50;;;;;;5061388;28;20198;-71
2021/06/08 10:02:39;;;;;;;2.17;1.45;;;22.70;58.40;;;;;;5081205;28;20809;-72
2021/06/08 10:05:23;;;;;;;3.83;1.70;;;22.70;58.20;;;;;;5064673;28;20212;-72
2021/06/08 10:07:51;;;;;;;6.90;1.67;;;22.80;57.90;;;;;;5064315;28;20209;-70
2021/06/08 10:10:19;;;;;;;5.57;1.65;;;22.90;57.70;;;;;;5063970;28;20210;-74
2021/06/08 10:12:57;;;;;;;3.00;1.58;;;22.90;57.30;;;;;;5067739;28;20206;-70
2021/06/08 10:15:25;;;;;;;2.13;1.60;;;23.00;57.40;;;;;;5062908;28;20291;-71
2021/06/08 10:17:58;;;;;;;4.57;2.05;;;23.10;56.80;;;;;;5068701;28;20585;-74
2021/06/08 10:20:29;;;;;;;3.80;2.25;;;23.20;56.30;;;;;;5062965;28;20213;-71
2021/06/08 10:22:56;;;;;;;2.80;1.63;;;23.20;55.80;;;;;;5068969;28;20205;-74
2021/06/08 10:25:22;;;;;;;2.92;1.85;;;23.30;55.40;;;;;;5066433;28;20198;-74
2021/06/08 10:27:49;;;;;;;7.85;2.17;;;23.30;55.40;;;;;;5076124;28;20198;-73
2021/06/08 10:30:16;;;;;;;4.28;2.13;;;23.40;55.00;;;;;;5066950;28;20514;-71
2021/06/08 10:32:43;;;;;;;4.25;1.90;;;23.50;54.80;;;;;;5068480;28;20593;-75
2021/06/08 10:35:12;;;;;;;3.42;1.80;;;23.90;53.00;;;;;;5069252;28;20432;-71
2021/06/08 10:37:38;;;;;;;3.90;2.13;;;24.30;51.60;;;;;;5066016;28;20427;-70
2021/06/08 10:40:06;;;;;;;3.42;1.80;;;24.50;49.60;;;;;;5064247;28;20959;-73
2021/06/08 10:42:33;;;;;;;3.37;1.87;;;24.70;49.80;;;;;;5070475;28;20434;-74
2021/06/08 10:45:03;;;;;;;4.97;1.80;;;24.80;48.70;;;;;;5073260;28;20429;-71
2021/06/08 10:47:40;;;;;;;7.07;1.92;;;24.90;48.90;;;;;;5067283;28;20849;-71
2021/06/08 10:50:23;;;;;;;4.32;1.88;;;25.10;48.60;;;;;;5074749;28;20989;-73
2021/06/08 10:52:50;;;;;;;4.05;1.65;;;25.20;46.40;;;;;;5062311;28;20443;-71
2021/06/08 10:55:18;;;;;;;3.22;2.20;;;25.40;46.10;;;;;;5074346;28;20435;-74
2021/06/08 10:57:45;;;;;;;11.82;2.70;;;25.50;44.50;;;;;;5068607;28;20438;-74
2021/06/08 11:00:33;;;;;;;3.97;1.73;;;25.50;44.80;;;;;;5064747;28;20423;-72
2021/06/08 11:03:01;;;;;;;2.63;1.60;;;25.60;45.40;;;;;;5062223;28;20442;-73
2021/06/08 11:05:47;;;;;;;2.30;1.70;;;25.70;44.00;;;;;;5066047;28;20461;-74
2021/06/08 11:08:14;;;;;;;3.05;1.70;;;25.80;42.50;;;;;;5064001;28;20459;-74
2021/06/08 11:10:53;;;;;;;3.30;1.88;;;25.80;44.20;;;;;;5064332;28;20953;-75
2021/06/08 11:13:51;;;;;;;3.05;1.60;;;25.90;43.70;;;;;;5064904;28;20895;-71
2021/06/08 11:16:31;;;;;;;2.53;1.50;;;26.00;43.90;;;;;;5064434;28;20419;-73
2021/06/08 11:18:58;;;;;;;3.83;1.50;;;26.10;44.20;;;;;;5063939;28;20437;-73
2021/06/08 11:21:28;;;;;;;2.45;1.25;;;26.20;42.70;;;;;;5064379;28;20911;-73
2021/06/08 11:23:55;;;;;;;4.22;1.60;;;26.30;43.20;;;;;;5062013;28;20432;-74
2021/06/08 11:26:50;;;;;;;2.63;1.50;;;26.50;43.00;;;;;;5064577;28;20455;-75
2021/06/08 11:29:46;;;;;;;3.47;1.60;;;26.60;42.80;;;;;;5036615;28;20431;-75
2021/06/08 11:32:47;;;;;;;2.47;1.47;;;26.70;42.60;;;;;;5071174;28;20438;-75
2021/06/08 11:35:17;;;;;;;6.28;2.65;;;26.80;41.90;;;;;;5063438;28;21722;-74
2021/06/08 11:37:58;;;;;;;3.90;2.30;;;26.90;44.60;;;;;;5065219;28;20432;-72
2021/06/08 11:40:56;;;;;;;6.82;2.45;;;26.90;45.50;;;;;;5063511;28;20427;-72
2021/06/08 11:43:52;;;;;;;6.30;2.50;;;26.90;45.90;;;;;;5064406;28;20435;-74
2021/06/08 11:46:28;;;;;;;8.00;3.15;;;27.00;46.00;;;;;;5062000;28;20428;-73
2021/06/08 11:49:13;;;;;;;7.60;3.63;;;27.00;47.30;;;;;;5060949;28;20908;-73
2021/06/08 11:51:47;;;;;;;7.75;3.40;;;27.10;46.70;;;;;;5061754;28;20477;-73
2021/06/08 11:54:19;;;;;;;6.05;3.70;;;27.00;46.10;;;;;;5065742;28;20447;-71
2021/06/08 11:56:48;;;;;;;8.70;3.42;;;27.00;46.90;;;;;;5065823;28;20955;-73
2021/06/08 11:59:15;;;;;;;12.05;3.80;;;27.00;47.30;;;;;;5062891;28;20786;-74
2021/06/08 12:01:43;;;;;;;5.32;3.00;;;27.00;47.00;;;;;;5060645;28;20472;-75
2021/06/08 12:04:10;;;;;;;7.22;2.83;;;27.10;47.40;;;;;;5060178;28;20451;-72
2021/06/08 12:07:15;;;;;;;6.90;3.20;;;27.20;46.50;;;;;;5060963;28;20442;-76
2021/06/08 12:09:47;;;;;;;7.10;2.80;;;27.30;46.30;;;;;;5058298;28;20435;-76
2021/06/08 12:12:15;;;;;;;6.00;3.63;;;27.50;46.30;;;;;;5065163;28;20423;-71
2021/06/08 12:15:06;;;;;;;7.22;3.60;;;27.60;45.80;;;;;;5062531;28;20442;-72
2021/06/08 12:17:33;;;;;;;7.65;4.03;;;27.70;45.20;;;;;;5070539;28;20870;-73
2021/06/08 12:19:59;;;;;;;6.45;3.67;;;27.80;44.90;;;;;;5063884;28;20426;-74
2021/06/08 12:22:27;;;;;;;5.03;2.92;;;27.80;45.50;;;;;;5067772;28;20448;-74
2021/06/08 12:24:57;;;;;;;4.88;3.20;;;27.80;45.70;;;;;;5066579;28;20438;-73
2021/06/08 12:27:38;;;;;;;6.43;3.50;;;27.90;45.20;;;;;;5063259;28;21301;-73
2021/06/08 12:30:07;;;;;;;5.30;3.20;;;28.00;45.00;;;;;;5062333;28;20427;-73
2021/06/08 12:32:34;;;;;;;6.07;3.40;;;28.20;44.70;;;;;;5073440;28;20912;-73
2021/06/08 12:35:00;;;;;;;5.15;3.28;;;28.30;44.10;;;;;;5066579;28;20427;-74
2021/06/08 12:37:28;;;;;;;7.50;3.73;;;28.40;43.80;;;;;;5067439;28;20423;-74
2021/06/08 12:39:58;;;;;;;6.00;3.40;;;28.50;43.80;;;;;;5065563;28;20817;-74
2021/06/08 12:42:25;;;;;;;6.97;3.93;;;28.60;44.00;;;;;;5068917;28;20441;-73
2021/06/08 12:44:53;;;;;;;7.00;3.63;;;28.70;43.70;;;;;;5065177;28;20427;-72
2021/06/08 12:47:22;;;;;;;6.95;4.50;;;28.80;43.80;;;;;;5071708;28;20449;-74
2021/06/08 12:49:48;;;;;;;6.60;4.28;;;28.90;43.50;;;;;;5065431;28;20427;-74